createdAt,value
2022-08-21T00:00:28.601Z,19.90
2022-08-21T00:03:03.146Z,19.95
2022-08-21T00:05:31.622Z,19.92
2022-08-21T00:07:58.947Z,19.91
2022-08-21T00:10:26.895Z,19.77
2022-08-21T00:12:54.030Z,19.81
2022-08-21T00:15:30.033Z,19.89
2022-08-21T00:17:58.410Z,19.88
2022-08-21T00:20:26.255Z,19.67
2022-08-21T00:22:53.708Z,19.77
2022-08-21T00:25:24.323Z,19.73
2022-08-21T00:27:53.866Z,19.76
2022-08-21T00:30:23.486Z,19.55
2022-08-21T00:32:52.257Z,19.66
2022-08-21T00:35:23.611Z,19.58
2022-08-21T00:37:50.731Z,19.64
2022-08-21T00:40:28.088Z,19.08
2022-08-21T00:42:55.592Z,19.56
2022-08-21T00:45:24.052Z,19.54
2022-08-21T00:47:52.943Z,19.50
2022-08-21T00:50:22.303Z,19.28
2022-08-21T00:52:52.265Z,19.52
2022-08-21T00:55:23.589Z,19.47
2022-08-21T00:57:54.307Z,19.11
2022-08-21T01:00:26.388Z,19.44
2022-08-21T01:02:53.399Z,19.14
2022-08-21T01:05:21.192Z,19.26
2022-08-21T01:07:48.537Z,19.19
2022-08-21T01:10:23.823Z,19.33
2022-08-21T01:12:53.345Z,19.36
2022-08-21T01:15:21.792Z,19.17
2022-08-21T01:17:50.408Z,19.34
2022-08-21T01:20:17.830Z,19.33
2022-08-21T01:22:45.036Z,19.11
2022-08-21T01:25:16.171Z,19.08
2022-08-21T01:27:44.016Z,19.31
2022-08-21T01:30:34.157Z,19.36
2022-08-21T01:33:01.849Z,19.08
2022-08-21T01:35:29.008Z,19.18
2022-08-21T01:37:56.195Z,19.22
2022-08-21T01:40:23.416Z,19.04
2022-08-21T01:42:50.650Z,19.11
2022-08-21T01:45:18.062Z,19.08
2022-08-21T01:47:46.688Z,18.97
2022-08-21T01:50:17.170Z,18.99
2022-08-21T01:52:44.437Z,18.57
2022-08-21T01:55:13.415Z,18.96
2022-08-21T01:57:40.635Z,18.14
2022-08-21T02:00:12.455Z,18.66
2022-08-21T02:02:42.042Z,18.94
2022-08-21T02:05:11.858Z,18.81
2022-08-21T02:07:45.077Z,18.38
2022-08-21T02:10:15.128Z,18.35
2022-08-21T02:12:42.299Z,18.83
2022-08-21T02:15:30.719Z,18.53
2022-08-21T02:18:01.279Z,18.30
2022-08-21T02:20:33.269Z,18.68
2022-08-21T02:23:01.376Z,18.76
2022-08-21T02:25:29.648Z,18.81
2022-08-21T02:27:56.716Z,18.31
2022-08-21T02:30:30.351Z,18.68
2022-08-21T02:32:58.091Z,18.66
2022-08-21T02:35:25.774Z,18.67
2022-08-21T02:38:01.488Z,18.66
2022-08-21T02:40:34.494Z,18.58
2022-08-21T02:43:03.070Z,18.49
2022-08-21T02:45:30.689Z,18.58
2022-08-21T02:48:00.822Z,18.29
2022-08-21T02:50:37.744Z,18.68
2022-08-21T02:53:07.104Z,18.66
2022-08-21T02:55:37.149Z,18.58
2022-08-21T02:58:06.687Z,18.66
2022-08-21T03:00:36.257Z,18.68
2022-08-21T03:03:06.002Z,18.63
2022-08-21T03:05:34.718Z,18.69
2022-08-21T03:08:03.994Z,18.62
2022-08-21T03:10:32.227Z,18.61
2022-08-21T03:12:59.444Z,18.47
2022-08-21T03:15:26.623Z,18.74
2022-08-21T03:17:55.686Z,18.56
2022-08-21T03:20:29.717Z,18.80
2022-08-21T03:22:57.334Z,18.66
2022-08-21T03:25:37.985Z,18.84
2022-08-21T03:28:13.038Z,18.89
2022-08-21T03:30:44.861Z,18.79
2022-08-21T03:33:15.573Z,18.91
2022-08-21T03:35:48.804Z,18.44
2022-08-21T03:38:15.951Z,18.43
2022-08-21T03:40:44.487Z,18.91
2022-08-21T03:43:12.238Z,18.94
2022-08-21T03:45:40.293Z,19.08
2022-08-21T03:48:08.872Z,19.11
2022-08-21T03:50:41.180Z,19.02
2022-08-21T03:53:16.469Z,19.08
2022-08-21T03:55:47.821Z,19.01
2022-08-21T03:58:18.202Z,18.77
2022-08-21T04:00:47.588Z,19.11
2022-08-21T04:03:14.721Z,19.11
2022-08-21T04:05:42.155Z,19.31
2022-08-21T04:08:09.479Z,19.29
2022-08-21T04:10:38.477Z,19.41
2022-08-21T04:13:07.124Z,19.18
2022-08-21T04:15:35.026Z,19.51
2022-08-21T04:18:02.452Z,19.53
2022-08-21T04:20:29.594Z,19.56
2022-08-21T04:22:57.669Z,19.56
2022-08-21T04:25:26.561Z,19.64
2022-08-21T04:27:54.220Z,19.47
2022-08-21T04:30:22.071Z,19.58
2022-08-21T04:32:58.166Z,19.51
2022-08-21T04:35:27.680Z,18.89
2022-08-21T04:37:54.840Z,19.21
2022-08-21T04:40:25.315Z,19.83
2022-08-21T04:42:57.584Z,19.90
2022-08-21T04:45:26.969Z,19.92
2022-08-21T04:47:56.787Z,19.91
2022-08-21T04:50:28.935Z,19.56
2022-08-21T04:53:07.594Z,19.96
2022-08-21T04:55:35.112Z,19.97
2022-08-21T04:58:02.538Z,19.94
2022-08-21T05:00:29.828Z,19.53
2022-08-21T05:03:00.429Z,20.03
2022-08-21T05:05:30.255Z,20.05
2022-08-21T05:08:00.410Z,20.09
2022-08-21T05:10:28.201Z,20.02
2022-08-21T05:12:56.710Z,20.20
2022-08-21T05:15:23.959Z,20.26
2022-08-21T05:17:53.755Z,20.28
2022-08-21T05:20:27.920Z,20.40
2022-08-21T05:22:55.189Z,20.54
2022-08-21T05:25:23.837Z,20.59
2022-08-21T05:27:52.315Z,20.60
2022-08-21T05:30:21.188Z,20.65
2022-08-21T05:32:48.941Z,20.77
2022-08-21T05:35:16.366Z,20.89
2022-08-21T05:37:43.364Z,20.75
2022-08-21T05:40:22.786Z,20.89
2022-08-21T05:42:55.630Z,21.06
2022-08-21T05:45:42.138Z,21.07
2022-08-21T05:48:12.745Z,21.17
2022-08-21T05:50:39.901Z,21.21
2022-08-21T05:53:08.097Z,21.35
2022-08-21T05:55:41.398Z,21.48
2022-08-21T05:58:12.356Z,21.01
2022-08-21T06:00:39.586Z,21.64
2022-08-21T06:03:12.340Z,21.58
2022-08-21T06:05:40.014Z,21.22
2022-08-21T06:08:07.199Z,21.95
2022-08-21T06:10:34.378Z,22.12
2022-08-21T06:13:01.755Z,22.13
2022-08-21T06:15:28.857Z,22.32
2022-08-21T06:17:56.275Z,22.10
2022-08-21T06:20:24.149Z,22.55
2022-08-21T06:22:51.351Z,22.75
2022-08-21T06:25:18.612Z,22.84
2022-08-21T06:27:46.092Z,22.67
2022-08-21T06:30:13.256Z,23.18
2022-08-21T06:32:40.992Z,22.82
2022-08-21T06:35:08.733Z,23.39
2022-08-21T06:37:35.917Z,23.42
2022-08-21T06:40:06.045Z,23.65
2022-08-21T06:42:39.713Z,23.84
2022-08-21T06:45:08.990Z,23.69
2022-08-21T06:47:35.939Z,23.91
2022-08-21T06:50:03.778Z,23.85
2022-08-21T06:52:30.957Z,24.04
2022-08-21T06:54:57.982Z,24.13
2022-08-21T06:57:26.267Z,24.09
2022-08-21T06:59:53.541Z,24.37
2022-08-21T07:02:20.538Z,24.38
2022-08-21T07:04:47.553Z,24.23
2022-08-21T07:07:14.652Z,24.16
2022-08-21T07:09:41.707Z,24.08
2022-08-21T07:12:09.738Z,24.38
2022-08-21T07:14:37.359Z,24.32
2022-08-21T07:17:04.595Z,24.55
2022-08-21T07:19:31.733Z,24.68
2022-08-21T07:22:02.475Z,24.78
2022-08-21T07:24:30.368Z,24.83
2022-08-21T07:26:57.583Z,24.75
2022-08-21T07:29:24.831Z,25.20
2022-08-21T07:31:52.090Z,25.04
2022-08-21T07:34:19.237Z,25.23
2022-08-21T07:36:47.202Z,25.21
2022-08-21T07:39:16.508Z,25.25
2022-08-21T07:41:43.725Z,25.51
2022-08-21T07:44:12.555Z,25.53
2022-08-21T07:46:39.998Z,25.77
2022-08-21T07:49:07.211Z,25.82
2022-08-21T07:51:34.917Z,25.87
2022-08-21T07:54:02.796Z,25.81
2022-08-21T07:56:32.244Z,25.81
2022-08-21T07:58:59.685Z,25.96
2022-08-21T08:01:27.056Z,25.97
2022-08-21T08:03:54.404Z,26.18
2022-08-21T08:06:21.725Z,26.22
2022-08-21T08:08:48.765Z,26.40
2022-08-21T08:11:19.260Z,26.39
2022-08-21T08:13:52.493Z,26.33
2022-08-21T08:16:20.801Z,26.18
2022-08-21T08:18:48.306Z,26.39
2022-08-21T08:21:16.250Z,26.05
2022-08-21T08:23:46.246Z,26.48
2022-08-21T08:26:13.670Z,26.61
2022-08-21T08:28:40.910Z,26.66
2022-08-21T08:31:08.053Z,26.67
2022-08-21T08:33:35.198Z,26.57
2022-08-21T08:36:07.055Z,26.62
2022-08-21T08:38:36.179Z,26.87
2022-08-21T08:41:14.029Z,26.87
2022-08-21T08:43:45.764Z,26.79
2022-08-21T08:46:16.878Z,26.81
2022-08-21T08:49:14.407Z,26.93
2022-08-21T08:51:56.426Z,26.92
2022-08-21T08:54:38.724Z,26.99
2022-08-21T08:57:15.766Z,26.99
2022-08-21T08:59:48.068Z,27.07
2022-08-21T09:02:16.532Z,27.21
2022-08-21T09:04:46.553Z,27.31
2022-08-21T09:07:41.094Z,27.44
2022-08-21T09:10:27.543Z,27.44
2022-08-21T09:13:17.097Z,27.50
2022-08-21T09:16:15.415Z,27.55
2022-08-21T09:19:09.296Z,27.20
2022-08-21T09:22:04.274Z,27.35
2022-08-21T09:24:50.037Z,27.18
2022-08-21T09:27:20.849Z,27.07
2022-08-21T09:29:51.981Z,27.04
2022-08-21T09:32:22.872Z,27.37
2022-08-21T09:35:07.245Z,27.20
2022-08-21T09:37:46.315Z,27.73
2022-08-21T09:40:35.406Z,27.76
2022-08-21T09:43:14.913Z,27.71
2022-08-21T09:45:43.757Z,27.46
2022-08-21T09:48:15.924Z,27.51
2022-08-21T09:50:44.365Z,27.61
2022-08-21T09:53:24.259Z,27.64
2022-08-21T09:56:19.236Z,27.59
2022-08-21T09:58:52.721Z,27.70
2022-08-21T10:01:23.048Z,27.65
2022-08-21T10:04:06.250Z,27.77
2022-08-21T10:06:35.938Z,27.18
2022-08-21T10:09:19.048Z,27.70
2022-08-21T10:12:11.334Z,27.52
2022-08-21T10:15:11.199Z,27.45
2022-08-21T10:17:40.797Z,27.75
2022-08-21T10:20:16.178Z,27.71
2022-08-21T10:22:50.589Z,27.23
2022-08-21T10:25:29.474Z,27.52
2022-08-21T10:28:13.050Z,27.50
2022-08-21T10:30:49.920Z,27.33
2022-08-21T10:33:40.056Z,27.60
2022-08-21T10:36:13.670Z,27.55
2022-08-21T10:39:23.413Z,27.47
2022-08-21T10:41:53.187Z,27.50
2022-08-21T10:44:40.647Z,27.58
2022-08-21T10:47:20.031Z,27.19
2022-08-21T10:50:04.212Z,27.61
2022-08-21T10:53:14.545Z,27.66
2022-08-21T10:56:02.521Z,27.12
2022-08-21T10:58:31.505Z,27.50
2022-08-21T11:01:21.507Z,27.49
2022-08-21T11:03:55.787Z,27.23
2022-08-21T11:06:26.699Z,27.52
2022-08-21T11:09:05.098Z,27.66
2022-08-21T11:12:10.882Z,27.00
2022-08-21T11:15:08.140Z,27.82
2022-08-21T11:18:17.582Z,27.80
2022-08-21T11:21:14.738Z,27.70
2022-08-21T11:23:50.219Z,27.63
2022-08-21T11:26:55.101Z,27.53
2022-08-21T11:29:30.748Z,27.62
2022-08-21T11:32:09.851Z,27.72
2022-08-21T11:34:41.568Z,27.65
2022-08-21T11:37:23.531Z,27.63
2022-08-21T11:40:19.874Z,27.72
2022-08-21T11:43:12.484Z,27.65
2022-08-21T11:45:39.512Z,27.54
2022-08-21T11:48:45.676Z,27.54
2022-08-21T11:51:20.030Z,27.00
2022-08-21T11:54:11.923Z,26.88
2022-08-21T11:56:45.162Z,27.26
2022-08-21T11:59:23.595Z,27.27
2022-08-21T12:01:53.759Z,27.20
2022-08-21T12:04:30.215Z,27.23
2022-08-21T12:06:58.355Z,27.13
2022-08-21T12:09:25.471Z,27.14
2022-08-21T12:12:07.853Z,27.02
2022-08-21T12:14:48.538Z,26.79
2022-08-21T12:17:37.547Z,26.96
2022-08-21T12:20:22.062Z,26.90
2022-08-21T12:23:05.773Z,26.50
2022-08-21T12:26:01.668Z,26.53
2022-08-21T12:28:31.445Z,26.65
2022-08-21T12:30:58.709Z,26.74
2022-08-21T12:33:28.497Z,26.73
2022-08-21T12:36:06.587Z,26.79
2022-08-21T12:38:44.551Z,26.75
2022-08-21T12:41:21.411Z,26.80
2022-08-21T12:43:53.117Z,26.66
2022-08-21T12:46:28.996Z,26.72
2022-08-21T12:49:01.753Z,26.84
2022-08-21T12:51:50.605Z,26.95
2022-08-21T12:54:29.663Z,26.95
2022-08-21T12:57:07.469Z,26.83
2022-08-21T12:59:39.861Z,26.54
2022-08-21T13:02:19.724Z,26.92
2022-08-21T13:04:49.114Z,26.87
2022-08-21T13:07:25.797Z,26.93
2022-08-21T13:09:59.495Z,26.88
2022-08-21T13:12:32.275Z,26.99
2022-08-21T13:15:09.163Z,26.93
2022-08-21T13:17:40.625Z,26.92
2022-08-21T13:20:11.668Z,26.52
2022-08-21T13:22:45.778Z,27.05
2022-08-21T13:25:19.432Z,27.04
2022-08-21T13:28:08.025Z,27.02
2022-08-21T13:30:35.149Z,27.00
2022-08-21T13:33:12.425Z,26.93
2022-08-21T13:36:10.959Z,27.04
2022-08-21T13:38:41.397Z,26.49
2022-08-21T13:41:17.872Z,26.82
2022-08-21T13:43:59.347Z,26.75
2022-08-21T13:46:32.627Z,26.78
2022-08-21T13:49:01.526Z,26.78
2022-08-21T13:51:29.347Z,26.63
2022-08-21T13:53:56.974Z,26.66
2022-08-21T13:56:26.814Z,26.65
2022-08-21T13:58:56.142Z,26.72
2022-08-21T14:01:31.622Z,26.77
2022-08-21T14:04:04.698Z,26.39
2022-08-21T14:06:37.222Z,26.31
2022-08-21T14:09:14.319Z,26.63
2022-08-21T14:11:41.725Z,26.59
2022-08-21T14:14:25.840Z,26.62
2022-08-21T14:17:23.329Z,26.67
2022-08-21T14:19:49.962Z,26.59
2022-08-21T14:22:49.898Z,26.77
2022-08-21T14:25:32.154Z,26.76
2022-08-21T14:28:27.212Z,26.77
2022-08-21T14:30:57.842Z,26.64
2022-08-21T14:33:30.726Z,26.23
2022-08-21T14:35:58.166Z,26.51
2022-08-21T14:38:27.843Z,26.44
2022-08-21T14:41:01.541Z,26.49
2022-08-21T14:43:29.443Z,26.52
2022-08-21T14:45:57.405Z,25.95
2022-08-21T14:48:25.501Z,26.44
2022-08-21T14:50:57.080Z,26.42
2022-08-21T14:53:26.860Z,26.57
2022-08-21T14:56:06.870Z,26.15
2022-08-21T14:58:37.236Z,26.54
2022-08-21T15:01:07.648Z,26.60
2022-08-21T15:03:35.519Z,26.65
2022-08-21T15:06:04.682Z,26.08
2022-08-21T15:08:33.654Z,26.55
2022-08-21T15:11:42.481Z,26.62
2022-08-21T15:13:56.751Z,26.59
2022-08-21T15:16:24.638Z,26.63
2022-08-21T15:18:51.780Z,26.36
2022-08-21T15:21:19.221Z,26.59
2022-08-21T15:23:48.017Z,26.14
2022-08-21T15:26:15.227Z,26.46
2022-08-21T15:28:42.522Z,26.13
2022-08-21T15:31:10.019Z,26.39
2022-08-21T15:33:37.023Z,25.89
2022-08-21T15:36:04.437Z,26.54
2022-08-21T15:38:31.969Z,26.44
2022-08-21T15:40:59.072Z,26.17
2022-08-21T15:43:42.332Z,26.11
2022-08-21T15:46:13.376Z,26.30
2022-08-21T15:48:40.781Z,24.88
2022-08-21T15:51:12.013Z,26.39
2022-08-21T15:53:41.147Z,25.97
2022-08-21T15:56:19.023Z,26.33
2022-08-21T15:58:46.484Z,25.14
2022-08-21T16:01:13.797Z,26.08
2022-08-21T16:03:40.990Z,26.10
2022-08-21T16:06:08.381Z,26.16
2022-08-21T16:08:35.718Z,26.12
2022-08-21T16:11:02.926Z,26.03
2022-08-21T16:13:39.375Z,25.74
2022-08-21T16:16:08.426Z,25.82
2022-08-21T16:18:35.562Z,25.92
2022-08-21T16:21:02.739Z,25.89
2022-08-21T16:23:29.998Z,25.34
2022-08-21T16:26:00.136Z,25.86
2022-08-21T16:28:27.534Z,25.85
2022-08-21T16:30:54.696Z,25.76
2022-08-21T16:33:21.817Z,25.38
2022-08-21T16:35:49.097Z,25.37
2022-08-21T16:38:16.232Z,25.35
2022-08-21T16:40:43.646Z,25.57
2022-08-21T16:43:11.239Z,25.67
2022-08-21T16:45:39.536Z,25.47
2022-08-21T16:48:09.960Z,25.55
2022-08-21T16:50:38.240Z,25.40
2022-08-21T16:53:07.259Z,25.30
2022-08-21T16:55:38.584Z,25.42
2022-08-21T16:58:11.678Z,25.33
2022-08-21T17:00:38.881Z,25.07
2022-08-21T17:03:06.660Z,24.91
2022-08-21T17:05:34.023Z,24.95
2022-08-21T17:08:01.164Z,25.29
2022-08-21T17:10:28.643Z,25.31
2022-08-21T17:12:58.647Z,25.21
2022-08-21T17:15:30.071Z,25.20
2022-08-21T17:17:57.800Z,25.23
2022-08-21T17:20:26.362Z,25.20
2022-08-21T17:22:54.210Z,25.21
2022-08-21T17:25:21.257Z,25.19
2022-08-21T17:27:49.807Z,25.08
2022-08-21T17:30:17.586Z,25.02
2022-08-21T17:32:47.248Z,25.13
2022-08-21T17:35:14.770Z,25.11
2022-08-21T17:37:42.226Z,25.10
2022-08-21T17:40:13.317Z,24.80
2022-08-21T17:42:42.957Z,25.01
2022-08-21T17:45:13.318Z,25.02
2022-08-21T17:47:40.663Z,24.59
2022-08-21T17:50:09.948Z,24.76
2022-08-21T17:52:37.585Z,24.41
2022-08-21T17:55:05.368Z,24.03
2022-08-21T17:57:36.586Z,24.90
2022-08-21T18:00:08.745Z,24.82
2022-08-21T18:02:41.130Z,24.90
2022-08-21T18:05:13.450Z,24.83
2022-08-21T18:07:41.778Z,24.91
2022-08-21T18:10:11.759Z,24.94
2022-08-21T18:12:43.657Z,24.91
2022-08-21T18:15:14.211Z,24.90
2022-08-21T18:17:45.595Z,24.71
2022-08-21T18:20:16.323Z,24.86
2022-08-21T18:22:43.613Z,24.77
2022-08-21T18:25:11.314Z,24.22
2022-08-21T18:27:39.294Z,24.78
2022-08-21T18:30:08.147Z,24.85
2022-08-21T18:32:35.344Z,24.66
2022-08-21T18:35:03.111Z,24.74
2022-08-21T18:37:31.303Z,24.73
2022-08-21T18:39:59.713Z,24.62
2022-08-21T18:42:29.453Z,24.68
2022-08-21T18:45:02.257Z,24.65
2022-08-21T18:47:40.643Z,24.78
2022-08-21T18:50:10.670Z,24.79
2022-08-21T18:52:41.831Z,24.78
2022-08-21T18:55:21.518Z,24.61
2022-08-21T18:57:49.215Z,24.58
2022-08-21T19:00:21.893Z,24.69
2022-08-21T19:02:49.663Z,24.62
2022-08-21T19:05:19.130Z,24.66
2022-08-21T19:07:47.361Z,24.61
2022-08-21T19:10:27.715Z,24.59
2022-08-21T19:12:59.690Z,24.49
2022-08-21T19:15:28.814Z,24.53
2022-08-21T19:17:58.559Z,24.26
2022-08-21T19:20:30.536Z,24.24
2022-08-21T19:22:58.552Z,23.31
2022-08-21T19:25:33.966Z,24.35
2022-08-21T19:28:36.530Z,24.41
2022-08-21T19:31:13.045Z,24.34
2022-08-21T19:36:36.105Z,23.82
2022-08-21T19:39:08.381Z,24.10
2022-08-21T19:41:38.921Z,23.99
2022-08-21T19:44:10.097Z,23.91
2022-08-21T19:46:40.459Z,23.95
2022-08-21T19:49:12.220Z,23.66
2022-08-21T19:51:40.257Z,24.10
2022-08-21T19:54:15.884Z,24.04
2022-08-21T19:56:45.422Z,23.93
2022-08-21T19:59:24.932Z,23.97
2022-08-21T20:01:52.358Z,23.94
2022-08-21T20:04:19.760Z,23.81
2022-08-21T20:06:47.859Z,23.68
2022-08-21T20:09:17.371Z,23.74
2022-08-21T20:11:54.261Z,23.37
2022-08-21T20:14:26.793Z,23.47
2022-08-21T20:17:12.574Z,23.77
2022-08-21T20:19:42.533Z,23.69
2022-08-21T20:22:10.559Z,23.66
2022-08-21T20:24:38.138Z,23.18
2022-08-21T20:27:06.317Z,23.66
2022-08-21T20:32:22.965Z,23.45
2022-08-21T20:34:51.776Z,23.56
2022-08-21T20:37:22.403Z,23.53
2022-08-21T20:40:11.164Z,23.37
2022-08-21T20:42:44.936Z,22.92
2022-08-21T20:45:18.562Z,23.00
2022-08-21T20:47:45.805Z,22.92
2022-08-21T20:50:18.131Z,23.23
2022-08-21T20:52:52.481Z,23.02
2022-08-21T20:55:29.275Z,23.11
2022-08-21T20:58:12.521Z,23.27
2022-08-21T21:00:43.576Z,22.50
2022-08-21T21:03:21.286Z,23.04
2022-08-21T21:06:11.669Z,22.52
2022-08-21T21:08:57.571Z,22.62
2022-08-21T21:11:39.568Z,22.57
2022-08-21T21:14:18.107Z,22.74
2022-08-21T21:16:51.725Z,22.29
2022-08-21T21:19:40.556Z,22.74
2022-08-21T21:22:16.008Z,22.69
2022-08-21T21:25:09.820Z,22.73
2022-08-21T21:27:50.949Z,22.63
2022-08-21T21:30:57.900Z,22.06
2022-08-21T21:33:25.446Z,22.55
2022-08-21T21:36:00.202Z,22.29
2022-08-21T21:38:51.795Z,22.44
2022-08-21T21:41:34.913Z,22.45
2022-08-21T21:44:14.831Z,22.37
2022-08-21T21:47:03.618Z,22.24
2022-08-21T21:49:55.533Z,22.32
2022-08-21T21:52:54.738Z,22.28
2022-08-21T21:55:34.096Z,22.29
2022-08-21T21:58:03.989Z,21.77
2022-08-21T22:00:34.467Z,22.13
2022-08-21T22:03:29.507Z,22.28
2022-08-21T22:06:07.579Z,22.11
2022-08-21T22:09:10.862Z,22.25
2022-08-21T22:11:41.259Z,20.89
2022-08-21T22:14:31.793Z,21.99
2022-08-21T22:17:05.239Z,22.09
2022-08-21T22:19:39.969Z,21.94
2022-08-21T22:22:19.090Z,22.07
2022-08-21T22:24:50.491Z,22.08
2022-08-21T22:27:31.079Z,22.15
2022-08-21T22:30:01.151Z,22.06
2022-08-21T22:32:39.221Z,22.09
2022-08-21T22:35:21.743Z,22.10
2022-08-21T22:37:56.004Z,21.95
2022-08-21T22:40:36.570Z,21.35
2022-08-21T22:43:07.844Z,22.06
2022-08-21T22:45:59.198Z,22.12
2022-08-21T22:48:39.140Z,22.07
2022-08-21T22:51:32.453Z,21.42
2022-08-21T22:54:00.331Z,21.91
2022-08-21T22:56:55.333Z,21.83
2022-08-21T22:59:30.401Z,22.07
2022-08-21T23:02:04.957Z,21.96
2022-08-21T23:04:33.784Z,21.93
2022-08-21T23:07:06.091Z,21.96
2022-08-21T23:10:00.030Z,22.11
2022-08-21T23:12:36.142Z,21.90
2022-08-21T23:18:21.449Z,21.52
2022-08-21T23:20:57.867Z,22.02
2022-08-21T23:23:29.387Z,21.92
2022-08-21T23:29:35.244Z,22.03
2022-08-21T23:32:26.535Z,21.57
2022-08-21T23:35:02.402Z,21.95
2022-08-21T23:37:51.605Z,21.93
2022-08-21T23:40:36.440Z,21.48
2022-08-21T23:43:26.788Z,21.91
2022-08-21T23:46:18.467Z,21.92
2022-08-21T23:48:59.145Z,21.78
2022-08-21T23:51:41.222Z,21.95
2022-08-21T23:54:32.611Z,21.76
2022-08-21T23:57:08.869Z,21.39
